Time;durP1;ratioP1;P1;durP2;ratioP2;P2;SDS_P1;SDS_P2;PMS_P1;PMS_P2;Temp;Humidity;BMP_temperature;BMP_pressure;BME280_temperature;BME280_humidity;BME280_pressure;Samples;Min_cycle;Max_cycle;Signal;HPM_P1;HPM_P2
2021/04/28 00:01:47;;;;;;;2.90;1.88;;;12.20;99.90;;;;;;5012178;28;20055;-73
2021/04/28 00:04:13;;;;;;;1.60;1.50;;;12.20;99.90;;;;;;5012328;28;20038;-73
2021/04/28 00:06:40;;;;;;;2.50;1.90;;;12.20;99.90;;;;;;5011128;28;20148;-73
2021/04/28 00:09:06;;;;;;;2.42;1.70;;;12.20;99.90;;;;;;4994497;28;20032;-72
2021/04/28 00:11:33;;;;;;;1.67;1.50;;;12.20;99.90;;;;;;5012288;28;20111;-73
2021/04/28 00:13:59;;;;;;;1.67;1.58;;;12.20;99.90;;;;;;5012236;28;20014;-75
2021/04/28 00:16:25;;;;;;;2.00;1.80;;;12.30;99.90;;;;;;5012264;28;20097;-77
2021/04/28 00:18:51;;;;;;;4.80;1.65;;;12.20;99.90;;;;;;5011929;28;20121;-73
2021/04/28 00:21:17;;;;;;;1.73;1.63;;;12.20;99.90;;;;;;5011902;28;20022;-73
2021/04/28 00:23:44;;;;;;;1.98;1.77;;;12.20;99.90;;;;;;5011432;28;20044;-72
2021/04/28 00:26:12;;;;;;;6.60;1.95;;;12.20;99.90;;;;;;5012089;28;20029;-72
2021/04/28 00:28:39;;;;;;;2.05;1.80;;;12.20;99.90;;;;;;5011903;28;20030;-72
2021/04/28 00:31:05;;;;;;;2.50;2.10;;;12.20;99.90;;;;;;5011972;28;20076;-73
2021/04/28 00:33:30;;;;;;;4.35;2.60;;;12.10;99.90;;;;;;5012232;28;20022;-72
2021/04/28 00:35:56;;;;;;;2.25;1.92;;;12.10;99.90;;;;;;5012308;28;20092;-72
2021/04/28 00:38:22;;;;;;;1.70;1.60;;;12.10;99.90;;;;;;5011367;28;20037;-79
2021/04/28 00:40:48;;;;;;;2.20;2.00;;;12.20;99.90;;;;;;5011821;28;20367;-72
2021/04/28 00:43:13;;;;;;;2.90;1.77;;;12.20;99.90;;;;;;5011243;28;20088;-72
2021/04/28 00:45:39;;;;;;;3.67;2.15;;;12.20;99.90;;;;;;5011758;28;20022;-72
2021/04/28 00:48:07;;;;;;;2.95;1.85;;;12.20;99.90;;;;;;5011716;28;20033;-72
2021/04/28 00:50:35;;;;;;;4.22;2.25;;;12.20;99.90;;;;;;5011363;28;20026;-72
2021/04/28 00:53:02;;;;;;;2.10;1.90;;;12.20;99.90;;;;;;5011509;28;20037;-73
2021/04/28 00:55:29;;;;;;;2.33;2.08;;;12.20;99.90;;;;;;5009977;28;20133;-74
2021/04/28 00:57:54;;;;;;;3.15;2.50;;;12.20;99.90;;;;;;5010217;28;20026;-73
2021/04/28 01:00:22;;;;;;;2.40;2.20;;;12.20;99.90;;;;;;5013300;28;20569;-74
2021/04/28 01:02:48;;;;;;;2.53;2.20;;;12.20;99.90;;;;;;5013928;28;20034;-73
2021/04/28 01:05:15;;;;;;;5.95;2.40;;;12.20;99.90;;;;;;5013615;28;20030;-74
2021/04/28 01:07:43;;;;;;;5.07;2.50;;;12.10;99.90;;;;;;5013721;28;20156;-73
2021/04/28 01:10:13;;;;;;;3.72;2.00;;;12.20;99.90;;;;;;5013808;28;20092;-73
2021/04/28 01:12:40;;;;;;;2.70;2.35;;;12.20;99.90;;;;;;5014930;28;20040;-75
2021/04/28 01:15:09;;;;;;;2.47;1.67;;;12.20;99.90;;;;;;5014784;28;20389;-74
2021/04/28 01:17:35;;;;;;;1.77;1.67;;;12.20;99.90;;;;;;5015322;28;20028;-73
2021/04/28 01:20:01;;;;;;;2.13;1.92;;;12.20;99.90;;;;;;5015622;28;20026;-89
2021/04/28 01:22:33;;;;;;;2.05;1.85;;;12.20;99.90;;;;;;4998788;28;20432;-81
2021/04/28 01:24:58;;;;;;;2.70;2.20;;;12.20;99.90;;;;;;5016055;28;20084;-81
2021/04/28 01:27:26;;;;;;;2.15;1.88;;;12.30;99.90;;;;;;5015782;28;20422;-73
2021/04/28 01:29:54;;;;;;;2.10;1.90;;;12.30;99.90;;;;;;5015491;28;20085;-78
2021/04/28 01:32:21;;;;;;;1.80;1.70;;;12.30;99.90;;;;;;5014967;28;20041;-72
2021/04/28 01:34:49;;;;;;;3.95;2.17;;;12.30;99.90;;;;;;5015118;28;20072;-75
2021/04/28 01:37:17;;;;;;;2.00;1.80;;;12.30;99.90;;;;;;5014342;28;20083;-73
2021/04/28 01:39:45;;;;;;;2.15;1.95;;;12.30;99.90;;;;;;5014287;28;20018;-73
2021/04/28 01:42:10;;;;;;;1.67;1.58;;;12.20;99.90;;;;;;5014353;28;20467;-73
2021/04/28 01:44:37;;;;;;;2.00;1.70;;;12.30;99.90;;;;;;5015044;28;20045;-73
2021/04/28 01:47:04;;;;;;;2.22;2.03;;;12.30;99.90;;;;;;4997253;28;20164;-73
2021/04/28 01:49:31;;;;;;;1.80;1.70;;;12.30;99.90;;;;;;5014930;28;20044;-72
2021/04/28 01:51:57;;;;;;;4.65;1.98;;;12.30;99.90;;;;;;5014783;28;20058;-73
2021/04/28 01:54:23;;;;;;;2.38;2.00;;;12.30;99.90;;;;;;5014683;28;20014;-77
2021/04/28 01:56:52;;;;;;;2.13;1.90;;;12.20;99.90;;;;;;5014739;28;20033;-87
2021/04/28 01:59:21;;;;;;;2.55;1.80;;;12.20;99.90;;;;;;5013637;28;20488;-72
2021/04/28 02:01:57;;;;;;;2.33;1.65;;;12.20;99.90;;;;;;5014186;28;20025;-72
2021/04/28 02:04:23;;;;;;;2.80;2.13;;;12.20;99.90;;;;;;5014348;28;20034;-75
2021/04/28 02:06:50;;;;;;;2.33;1.98;;;12.20;99.90;;;;;;5014409;28;20022;-72
2021/04/28 02:09:16;;;;;;;2.25;1.70;;;12.20;99.90;;;;;;5013893;28;20029;-73
2021/04/28 02:11:42;;;;;;;5.25;1.80;;;12.30;99.90;;;;;;5014487;28;20037;-73
2021/04/28 02:14:15;;;;;;;2.80;2.03;;;12.20;99.90;;;;;;5014330;28;20030;-78
2021/04/28 02:16:41;;;;;;;2.20;1.80;;;12.20;99.90;;;;;;5013094;28;20077;-73
2021/04/28 02:19:09;;;;;;;2.55;1.77;;;12.20;99.90;;;;;;5014195;28;20053;-72
2021/04/28 02:21:56;;;;;;;2.00;1.77;;;12.20;99.90;;;;;;5014280;28;20045;-72
2021/04/28 02:24:22;;;;;;;1.88;1.77;;;12.20;99.90;;;;;;5014317;28;20026;-73
2021/04/28 02:26:55;;;;;;;2.00;1.70;;;12.20;99.90;;;;;;5014337;28;20092;-72
2021/04/28 02:29:21;;;;;;;1.65;1.55;;;12.20;99.90;;;;;;5014282;28;20493;-73
2021/04/28 02:31:46;;;;;;;1.60;1.50;;;12.20;99.90;;;;;;4996114;28;20022;-75
2021/04/28 02:34:12;;;;;;;1.75;1.65;;;12.20;99.90;;;;;;5013854;28;20022;-72
2021/04/28 02:36:44;;;;;;;1.70;1.60;;;12.20;99.90;;;;;;5013595;28;20034;-73
2021/04/28 02:39:26;;;;;;;1.85;1.75;;;12.20;99.90;;;;;;5013032;28;20076;-72
2021/04/28 02:41:52;;;;;;;2.03;1.83;;;12.20;99.90;;;;;;5013865;28;20467;-73
2021/04/28 02:44:19;;;;;;;2.05;1.73;;;12.10;99.90;;;;;;5014087;28;20375;-73
2021/04/28 02:46:47;;;;;;;2.67;2.05;;;12.10;99.90;;;;;;5013672;28;20038;-72
2021/04/28 02:49:14;;;;;;;1.80;1.70;;;12.10;99.90;;;;;;5013384;28;20171;-77
2021/04/28 02:51:41;;;;;;;1.80;1.70;;;12.10;99.90;;;;;;5013145;28;20037;-73
2021/04/28 02:54:07;;;;;;;2.25;2.00;;;12.20;99.90;;;;;;5013584;28;20018;-73
2021/04/28 02:56:33;;;;;;;2.30;2.10;;;12.10;99.90;;;;;;5013913;28;20374;-72
2021/04/28 02:59:00;;;;;;;3.83;2.15;;;12.10;99.90;;;;;;5013459;28;20344;-73
2021/04/28 03:01:27;;;;;;;2.92;2.25;;;12.10;99.90;;;;;;5013470;28;20026;-74
2021/04/28 03:03:54;;;;;;;2.38;2.10;;;12.10;99.90;;;;;;5013675;28;20398;-75
2021/04/28 03:06:20;;;;;;;2.00;1.67;;;12.10;99.90;;;;;;5012334;28;20485;-75
2021/04/28 03:08:46;;;;;;;2.45;2.10;;;12.10;99.90;;;;;;5013110;28;20026;-74
2021/04/28 03:11:13;;;;;;;2.05;1.63;;;12.10;99.90;;;;;;5012243;28;20076;-88
2021/04/28 03:13:40;;;;;;;2.28;1.85;;;12.10;99.90;;;;;;5012261;28;20422;-72
2021/04/28 03:16:06;;;;;;;2.53;1.77;;;12.10;99.90;;;;;;5005129;28;20032;-73
2021/04/28 03:18:32;;;;;;;2.55;1.80;;;12.10;99.90;;;;;;5012115;28;20030;-72
2021/04/28 03:21:00;;;;;;;4.40;2.25;;;12.10;99.90;;;;;;5012730;28;20524;-89
2021/04/28 03:23:26;;;;;;;2.25;1.85;;;12.20;99.90;;;;;;5012707;28;20033;-73
2021/04/28 03:25:52;;;;;;;3.88;2.80;;;12.10;99.90;;;;;;5012925;28;20427;-73
2021/04/28 03:28:18;;;;;;;2.15;1.95;;;12.10;99.90;;;;;;5012607;28;20459;-76
2021/04/28 03:30:44;;;;;;;3.17;2.22;;;12.10;99.90;;;;;;5012604;28;20033;-73
2021/04/28 03:33:09;;;;;;;3.33;2.10;;;12.10;99.90;;;;;;5011407;28;20690;-72
2021/04/28 03:35:37;;;;;;;2.33;2.10;;;12.10;99.90;;;;;;5012352;28;20106;-73
2021/04/28 03:38:03;;;;;;;2.38;2.08;;;12.10;99.90;;;;;;5012255;28;20046;-72
2021/04/28 03:40:29;;;;;;;2.83;2.10;;;12.10;99.90;;;;;;5012582;28;20060;-82
2021/04/28 03:42:55;;;;;;;2.88;2.20;;;12.10;99.90;;;;;;5012646;28;20049;-73
2021/04/28 03:45:20;;;;;;;4.45;2.25;;;12.10;99.90;;;;;;5012432;28;20483;-72
2021/04/28 03:47:46;;;;;;;3.13;2.25;;;12.10;99.90;;;;;;5012205;28;20030;-79
2021/04/28 03:50:12;;;;;;;4.32;2.13;;;12.00;99.90;;;;;;5012476;28;20383;-72
2021/04/28 03:52:38;;;;;;;4.57;2.10;;;12.00;99.90;;;;;;5012201;28;20033;-74
2021/04/28 03:55:09;;;;;;;2.03;1.83;;;12.00;99.90;;;;;;5012464;28;20029;-72
2021/04/28 03:57:35;;;;;;;3.17;1.80;;;12.00;99.90;;;;;;5012276;28;20112;-73
2021/04/28 04:00:05;;;;;;;2.35;1.85;;;12.00;99.90;;;;;;5012540;28;20018;-76
2021/04/28 04:02:31;;;;;;;3.65;2.10;;;11.90;99.90;;;;;;4994557;28;20034;-72
2021/04/28 04:04:59;;;;;;;2.60;2.20;;;11.90;99.90;;;;;;5009001;28;20029;-73
2021/04/28 04:07:25;;;;;;;5.47;2.13;;;11.90;99.90;;;;;;5012451;28;20360;-72
2021/04/28 04:09:51;;;;;;;2.92;1.88;;;11.90;99.90;;;;;;5012321;28;20026;-72
2021/04/28 04:12:16;;;;;;;3.95;2.45;;;11.90;99.90;;;;;;5012108;28;20541;-76
2021/04/28 04:14:42;;;;;;;6.70;2.25;;;11.90;99.90;;;;;;5011955;28;20084;-73
2021/04/28 04:17:08;;;;;;;2.97;2.30;;;11.90;99.90;;;;;;5012109;28;20078;-73
2021/04/28 04:19:34;;;;;;;2.42;2.08;;;11.90;99.90;;;;;;5012333;28;20025;-73
2021/04/28 04:22:00;;;;;;;2.42;2.00;;;12.00;99.90;;;;;;4997760;28;20467;-73
2021/04/28 04:24:25;;;;;;;2.70;2.38;;;12.00;99.90;;;;;;5012208;28;20022;-77
2021/04/28 04:26:51;;;;;;;4.32;2.45;;;12.00;99.90;;;;;;5011708;28;20026;-72
2021/04/28 04:29:17;;;;;;;6.18;2.38;;;12.00;99.90;;;;;;5012171;28;20053;-75
2021/04/28 04:31:42;;;;;;;3.47;2.33;;;12.00;99.90;;;;;;4994706;28;20109;-82
2021/04/28 04:34:08;;;;;;;2.83;2.45;;;12.10;99.90;;;;;;4996227;28;20390;-72
2021/04/28 04:36:34;;;;;;;3.20;2.47;;;12.10;99.90;;;;;;5016358;28;20041;-72
2021/04/28 04:38:59;;;;;;;3.50;2.20;;;12.10;99.90;;;;;;5015912;28;20022;-74
2021/04/28 04:41:25;;;;;;;3.78;2.60;;;12.10;99.90;;;;;;5016166;28;20071;-75
2021/04/28 04:43:51;;;;;;;3.40;2.85;;;12.20;99.90;;;;;;5015967;28;20038;-73
2021/04/28 04:46:17;;;;;;;3.38;2.22;;;12.20;99.90;;;;;;5015521;28;20018;-73
2021/04/28 04:48:42;;;;;;;3.22;2.33;;;12.20;99.90;;;;;;5015351;28;20032;-73
2021/04/28 04:51:08;;;;;;;3.20;2.30;;;12.30;99.90;;;;;;5015912;28;20411;-73
2021/04/28 04:53:34;;;;;;;3.03;2.17;;;12.30;99.90;;;;;;5015481;28;20116;-73
2021/04/28 04:56:01;;;;;;;4.45;2.50;;;12.40;99.90;;;;;;5015915;28;20018;-84
2021/04/28 04:58:27;;;;;;;5.47;2.70;;;12.40;99.90;;;;;;5016055;28;20373;-73
2021/04/28 05:00:52;;;;;;;3.58;2.47;;;12.50;99.90;;;;;;5015435;28;20116;-74
2021/04/28 05:03:18;;;;;;;3.40;2.28;;;12.50;99.90;;;;;;5015754;28;20065;-76
2021/04/28 05:05:43;;;;;;;2.47;2.28;;;12.50;99.90;;;;;;5016427;28;20116;-75
2021/04/28 05:08:09;;;;;;;2.22;2.10;;;12.40;99.90;;;;;;5016380;28;20046;-81
2021/04/28 05:10:35;;;;;;;2.67;2.47;;;12.50;99.90;;;;;;5016139;28;20898;-77
2021/04/28 05:13:01;;;;;;;7.30;2.47;;;12.40;99.90;;;;;;5015772;28;20026;-78
2021/04/28 05:15:26;;;;;;;5.30;2.22;;;12.50;99.90;;;;;;5015946;28;20030;-87
2021/04/28 05:17:57;;;;;;;3.38;2.60;;;12.50;99.90;;;;;;5016188;28;20431;-84
2021/04/28 05:20:23;;;;;;;2.72;2.20;;;12.60;99.90;;;;;;5015877;28;20026;-86
2021/04/28 05:22:49;;;;;;;3.28;2.55;;;12.70;99.90;;;;;;5015560;28;20050;-79
2021/04/28 05:25:15;;;;;;;8.25;2.47;;;12.80;99.90;;;;;;5014249;28;20430;-73
2021/04/28 05:27:41;;;;;;;4.18;2.40;;;12.90;99.90;;;;;;5015313;28;20034;-86
2021/04/28 05:30:08;;;;;;;2.83;2.30;;;12.90;99.90;;;;;;5013197;28;20084;-76
2021/04/28 05:32:34;;;;;;;3.58;2.70;;;13.00;99.90;;;;;;4994782;28;20049;-74
2021/04/28 05:35:00;;;;;;;3.08;2.33;;;13.10;99.90;;;;;;5015073;28;20026;-80
2021/04/28 05:37:25;;;;;;;2.50;2.30;;;13.30;99.90;;;;;;5006748;28;20029;-87
2021/04/28 05:39:51;;;;;;;3.50;2.58;;;13.40;99.90;;;;;;5010587;28;20080;-74
2021/04/28 05:42:17;;;;;;;2.50;2.30;;;13.60;99.90;;;;;;5014309;28;20030;-76
2021/04/28 05:44:44;;;;;;;2.45;2.22;;;13.70;99.90;;;;;;5014987;28;20363;-84
2021/04/28 05:47:11;;;;;;;2.70;2.00;;;13.90;99.90;;;;;;5015344;28;20097;-77
2021/04/28 05:49:36;;;;;;;8.05;2.10;;;14.20;99.90;;;;;;5001984;28;20041;-73
2021/04/28 05:52:02;;;;;;;2.75;1.85;;;14.50;99.90;;;;;;5014955;28;20030;-88
2021/04/28 05:54:28;;;;;;;3.67;2.20;;;15.10;99.90;;;;;;5013209;28;20034;-72
2021/04/28 05:56:56;;;;;;;3.67;2.22;;;15.40;99.90;;;;;;5005651;28;20029;-77
2021/04/28 05:59:22;;;;;;;4.75;2.08;;;15.50;99.90;;;;;;5010919;28;20105;-80
2021/04/28 06:01:48;;;;;;;4.85;2.72;;;15.50;99.90;;;;;;5014539;28;20112;-74
2021/04/28 06:04:14;;;;;;;4.03;2.00;;;15.40;99.90;;;;;;5014515;28;20025;-79
2021/04/28 06:06:39;;;;;;;2.92;2.38;;;15.70;99.90;;;;;;5015489;28;20040;-85
2021/04/28 06:09:05;;;;;;;2.55;2.13;;;15.80;99.90;;;;;;5015371;28;20101;-87
2021/04/28 06:11:31;;;;;;;2.22;1.90;;;16.50;99.90;;;;;;5015227;28;20029;-74
2021/04/28 06:13:57;;;;;;;2.38;2.17;;;17.00;99.90;;;;;;4998218;28;20052;-81
2021/04/28 06:16:24;;;;;;;2.75;2.10;;;17.20;99.90;;;;;;5014400;28;20026;-91
2021/04/28 06:18:50;;;;;;;2.88;1.70;;;16.80;99.90;;;;;;4997153;28;20385;-77
2021/04/28 06:21:16;;;;;;;1.83;1.52;;;16.80;99.90;;;;;;5014862;28;20026;-73
2021/04/28 06:23:42;;;;;;;8.70;2.33;;;17.10;99.90;;;;;;4997430;28;20042;-81
2021/04/28 06:26:07;;;;;;;4.20;1.58;;;17.20;99.90;;;;;;5014675;28;20394;-74
2021/04/28 06:28:33;;;;;;;3.42;1.67;;;17.60;99.90;;;;;;5014168;28;20029;-88
2021/04/28 06:30:59;;;;;;;2.20;1.50;;;17.70;99.90;;;;;;5014601;28;20584;-74
2021/04/28 06:33:25;;;;;;;1.77;1.55;;;17.70;99.90;;;;;;5014823;28;20313;-81
2021/04/28 06:35:51;;;;;;;2.13;1.73;;;17.50;99.90;;;;;;5014642;28;20033;-75
2021/04/28 06:38:16;;;;;;;5.55;1.88;;;17.40;99.90;;;;;;5015017;28;20038;-74
2021/04/28 06:40:43;;;;;;;2.92;1.90;;;17.40;99.90;;;;;;5014408;28;20032;-84
2021/04/28 06:43:09;;;;;;;2.63;1.65;;;17.70;99.90;;;;;;5014201;28;20108;-75
2021/04/28 06:45:35;;;;;;;8.32;1.55;;;18.30;99.90;;;;;;5014233;28;20041;-78
2021/04/28 06:48:05;;;;;;;11.00;1.95;;;18.90;99.90;;;;;;4996575;28;20041;-75
2021/04/28 06:50:31;;;;;;;2.92;1.80;;;19.40;99.90;;;;;;5013935;28;20022;-74
2021/04/28 06:52:57;;;;;;;2.97;1.88;;;19.70;99.90;;;;;;5013675;28;20024;-79
2021/04/28 06:55:23;;;;;;;6.53;1.42;;;20.40;99.90;;;;;;5013229;28;20091;-81
2021/04/28 06:57:56;;;;;;;1.92;1.08;;;20.80;99.90;;;;;;5013761;28;20022;-75
2021/04/28 07:00:27;;;;;;;4.60;1.15;;;21.10;99.90;;;;;;5013545;28;20018;-74
2021/04/28 07:02:54;;;;;;;2.65;1.60;;;21.70;99.90;;;;;;5001467;28;20038;-82
2021/04/28 07:05:21;;;;;;;1.60;1.40;;;22.50;99.90;;;;;;5013365;28;20018;-75
2021/04/28 07:07:47;;;;;;;1.38;1.20;;;23.60;99.90;;;;;;5013462;28;20076;-80
2021/04/28 07:10:14;;;;;;;4.72;1.10;;;24.60;99.90;;;;;;5013792;28;20536;-76
2021/04/28 07:12:39;;;;;;;1.65;1.20;;;25.80;98.40;;;;;;5013176;28;20034;-75
2021/04/28 07:15:06;;;;;;;1.30;1.00;;;26.30;95.70;;;;;;5005331;28;20029;-83
2021/04/28 07:17:33;;;;;;;2.42;1.17;;;25.30;95.00;;;;;;5013824;28;20040;-77
2021/04/28 07:20:00;;;;;;;1.23;0.95;;;24.70;95.50;;;;;;5013351;28;20026;-73
2021/04/28 07:22:25;;;;;;;5.45;1.67;;;24.10;96.00;;;;;;5012354;28;20482;-81
2021/04/28 07:24:53;;;;;;;4.72;1.35;;;23.50;96.40;;;;;;5012317;28;20061;-73
2021/04/28 07:27:19;;;;;;;3.67;1.25;;;23.20;97.20;;;;;;5016778;28;20057;-78
2021/04/28 07:29:45;;;;;;;5.70;1.33;;;23.70;96.60;;;;;;5010119;28;20496;-75
2021/04/28 07:32:10;;;;;;;2.97;1.10;;;24.30;95.70;;;;;;5014689;28;20022;-76
2021/04/28 07:34:36;;;;;;;2.90;1.17;;;24.80;94.90;;;;;;5018265;28;20034;-76
2021/04/28 07:37:03;;;;;;;1.83;1.20;;;24.70;94.50;;;;;;5016727;28;20105;-75
2021/04/28 07:39:29;;;;;;;7.13;1.40;;;24.20;94.60;;;;;;5011396;28;20026;-75
2021/04/28 07:41:55;;;;;;;3.28;1.55;;;23.70;95.30;;;;;;5016714;28;20110;-75
2021/04/28 07:44:24;;;;;;;6.85;1.50;;;23.30;95.90;;;;;;5013633;28;20064;-75
2021/04/28 07:46:50;;;;;;;2.05;1.30;;;22.90;96.60;;;;;;5013721;28;20026;-79
2021/04/28 07:49:16;;;;;;;2.10;1.30;;;22.50;96.60;;;;;;5013719;28;20497;-77
2021/04/28 07:51:42;;;;;;;4.47;1.63;;;22.30;97.10;;;;;;5010128;28;20026;-76
2021/04/28 07:54:08;;;;;;;1.45;1.33;;;21.50;97.60;;;;;;5010931;28;20032;-76
2021/04/28 07:56:34;;;;;;;2.08;1.30;;;21.40;98.30;;;;;;4990611;28;20117;-76
2021/04/28 07:59:00;;;;;;;4.32;1.58;;;20.90;98.70;;;;;;5017725;28;20049;-75
2021/04/28 08:01:26;;;;;;;5.40;1.70;;;20.40;99.40;;;;;;5019004;28;20030;-76
2021/04/28 08:03:51;;;;;;;2.25;1.67;;;20.30;99.80;;;;;;5013776;28;20034;-78
2021/04/28 08:06:17;;;;;;;1.80;1.60;;;20.10;99.90;;;;;;5009468;28;20037;-87
2021/04/28 08:08:43;;;;;;;2.50;1.48;;;20.20;99.90;;;;;;5011075;28;20552;-78
2021/04/28 08:11:08;;;;;;;1.85;1.65;;;20.10;99.90;;;;;;5008562;28;20106;-84
2021/04/28 08:13:34;;;;;;;4.80;1.70;;;20.30;99.90;;;;;;5011546;28;20026;-80
2021/04/28 08:16:01;;;;;;;4.80;1.63;;;20.60;99.90;;;;;;5010909;28;20057;-84
2021/04/28 08:18:26;;;;;;;9.95;2.33;;;20.70;99.90;;;;;;5012067;28;20105;-85
2021/04/28 08:20:52;;;;;;;3.50;1.60;;;20.90;99.90;;;;;;5012258;28;20109;-81
2021/04/28 08:23:18;;;;;;;2.03;1.58;;;20.90;99.80;;;;;;5012172;28;20042;-77
2021/04/28 08:25:44;;;;;;;2.00;1.60;;;21.10;99.80;;;;;;5005930;28;20084;-82
2021/04/28 08:28:10;;;;;;;3.88;1.38;;;21.10;99.40;;;;;;5012021;28;20079;-77
2021/04/28 08:30:36;;;;;;;2.50;1.42;;;21.20;99.70;;;;;;5012408;28;20049;-81
2021/04/28 08:33:02;;;;;;;3.85;1.42;;;21.20;99.80;;;;;;5012470;28;20072;-82
2021/04/28 08:35:28;;;;;;;5.32;1.58;;;21.30;99.80;;;;;;5012025;28;20049;-78
2021/04/28 08:37:54;;;;;;;5.18;2.13;;;21.50;99.40;;;;;;5004326;28;20132;-81
2021/04/28 08:40:21;;;;;;;7.60;1.63;;;21.70;99.10;;;;;;5011634;28;20049;-90
2021/04/28 08:42:47;;;;;;;7.28;2.05;;;22.10;98.80;;;;;;5007702;28;20046;-82
2021/04/28 08:45:14;;;;;;;6.43;1.80;;;22.40;99.10;;;;;;5008223;28;20037;-82
2021/04/28 08:47:42;;;;;;;3.35;1.70;;;22.50;98.20;;;;;;5004166;28;20445;-85
2021/04/28 08:50:08;;;;;;;3.67;1.38;;;22.50;98.30;;;;;;4992101;28;20475;-87
2021/04/28 08:52:35;;;;;;;4.45;1.13;;;22.40;98.30;;;;;;5008768;28;20029;-82
2021/04/28 08:55:01;;;;;;;4.05;1.60;;;22.40;98.30;;;;;;5011721;28;20025;-82
2021/04/28 08:57:27;;;;;;;8.05;1.60;;;22.60;98.00;;;;;;5008378;28;20033;-83
2021/04/28 08:59:54;;;;;;;5.45;1.42;;;22.30;98.10;;;;;;5011118;28;20046;-92
2021/04/28 09:02:28;;;;;;;2.47;1.30;;;22.10;98.40;;;;;;5010042;28;20053;-87
2021/04/28 09:05:15;;;;;;;3.33;1.60;;;21.90;98.60;;;;;;4993734;28;20087;-90
2021/04/28 09:07:43;;;;;;;3.40;1.58;;;21.90;98.50;;;;;;5007026;28;20030;-89
2021/04/28 09:10:11;;;;;;;4.10;1.80;;;21.90;98.50;;;;;;5017130;28;20091;-84
2021/04/28 09:12:38;;;;;;;7.25;1.88;;;22.10;99.90;;;;;;4997633;28;20018;-91
2021/04/28 09:15:06;;;;;;;3.47;1.80;;;22.20;99.90;;;;;;5023023;28;20501;-80
2021/04/28 09:17:53;;;;;;;4.05;2.28;;;22.20;99.90;;;;;;5010800;28;20087;-84
2021/04/28 09:20:34;;;;;;;5.43;1.88;;;22.20;99.90;;;;;;5015452;28;20107;-89
2021/04/28 09:23:20;;;;;;;7.40;2.17;;;22.20;99.90;;;;;;5017048;28;20026;-76
2021/04/28 09:25:49;;;;;;;4.20;1.50;;;22.30;99.90;;;;;;5012548;28;20026;-78
2021/04/28 09:28:22;;;;;;;3.72;2.08;;;22.50;99.80;;;;;;5008723;28;20435;-83
2021/04/28 09:30:49;;;;;;;3.47;2.20;;;22.50;99.90;;;;;;5019536;28;20113;-89
2021/04/28 09:33:15;;;;;;;11.05;2.30;;;22.70;99.90;;;;;;5007702;28;20779;-78
2021/04/28 09:35:41;;;;;;;6.30;2.17;;;22.60;99.90;;;;;;5015961;28;20022;-77
2021/04/28 09:38:07;;;;;;;4.90;2.58;;;22.70;99.90;;;;;;5021358;28;20021;-75
2021/04/28 09:40:49;;;;;;;4.13;2.00;;;22.70;99.90;;;;;;5021164;28;20057;-75
2021/04/28 09:43:14;;;;;;;;;;;22.80;99.80;;;;;;4996118;28;20054;-75
2021/04/28 09:45:51;;;;;;;6.70;3.00;;;22.90;99.90;;;;;;4994139;28;19918;-77
2021/04/28 09:48:22;;;;;;;3.70;2.70;;;22.90;99.90;;;;;;4998594;28;20033;-78
2021/04/28 09:50:49;;;;;;;3.28;2.42;;;23.10;99.90;;;;;;4993546;28;20023;-77
2021/04/28 09:53:28;;;;;;;13.90;3.38;;;23.20;99.90;;;;;;5000625;28;20030;-76
2021/04/28 09:55:55;;;;;;;6.78;2.90;;;23.20;99.70;;;;;;4994989;28;20064;-76
2021/04/28 09:58:49;;;;;;;24.05;4.45;;;23.10;99.40;;;;;;4998318;28;20117;-74
2021/04/28 10:01:17;;;;;;;22.70;4.20;;;23.00;99.90;;;;;;4990298;28;20026;-76
2021/04/28 10:03:44;;;;;;;33.72;4.13;;;23.00;99.90;;;;;;4998872;28;20043;-74
2021/04/28 10:06:10;;;;;;;11.05;2.92;;;23.10;99.70;;;;;;4989775;28;20563;-75
2021/04/28 10:08:35;;;;;;;12.80;3.28;;;23.20;99.60;;;;;;4985011;28;20125;-74
2021/04/28 10:11:01;;;;;;;10.40;2.63;;;23.40;99.90;;;;;;4991272;28;20029;-74
2021/04/28 10:13:27;;;;;;;7.55;2.17;;;23.70;99.70;;;;;;5002463;28;20027;-75
2021/04/28 10:15:53;;;;;;;4.97;2.42;;;23.60;99.40;;;;;;5006044;28;20052;-85
2021/04/28 10:18:22;;;;;;;3.42;2.53;;;23.50;98.70;;;;;;5003223;28;20463;-74
2021/04/28 10:20:50;;;;;;;5.15;2.20;;;23.40;98.60;;;;;;4997725;28;20030;-75
2021/04/28 10:23:17;;;;;;;5.38;2.88;;;23.30;99.20;;;;;;4987229;28;20093;-81
2021/04/28 10:25:48;;;;;;;4.38;2.35;;;23.10;99.90;;;;;;4993316;28;20026;-80
2021/04/28 10:28:14;;;;;;;1.88;1.70;;;23.10;99.90;;;;;;4990284;28;20022;-75
2021/04/28 10:30:49;;;;;;;7.07;3.10;;;23.30;99.10;;;;;;4996957;28;20022;-77
2021/04/28 10:33:22;;;;;;;3.78;2.67;;;23.40;99.20;;;;;;4992869;28;20022;-80
2021/04/28 10:35:50;;;;;;;5.32;2.40;;;23.30;98.90;;;;;;4994533;28;20596;-84
2021/04/28 10:38:26;;;;;;;8.35;2.50;;;23.30;99.70;;;;;;4996175;28;20160;-75
2021/04/28 10:40:52;;;;;;;4.68;2.50;;;23.40;99.90;;;;;;4978895;28;20476;-76
2021/04/28 10:43:20;;;;;;;5.05;2.22;;;23.20;99.90;;;;;;5001352;28;20049;-86
2021/04/28 10:45:46;;;;;;;5.93;2.17;;;23.00;99.90;;;;;;5018246;28;20026;-76
2021/04/28 10:48:14;;;;;;;4.05;2.40;;;22.90;99.90;;;;;;5013308;28;20029;-76
2021/04/28 10:50:42;;;;;;;7.40;2.50;;;22.60;99.90;;;;;;5013419;28;20116;-78
2021/04/28 10:53:20;;;;;;;9.20;2.63;;;22.40;99.90;;;;;;5010457;28;20061;-77
2021/04/28 10:55:53;;;;;;;5.03;2.05;;;22.40;99.90;;;;;;5010470;28;20084;-76
2021/04/28 10:58:25;;;;;;;5.57;2.45;;;22.50;99.90;;;;;;5012481;28;20014;-77
2021/04/28 11:01:06;;;;;;;8.40;3.63;;;22.60;99.90;;;;;;4995492;28;20056;-78
2021/04/28 11:03:42;;;;;;;4.22;3.30;;;22.60;99.90;;;;;;5013778;28;20030;-75
2021/04/28 11:06:23;;;;;;;6.32;2.92;;;22.50;99.90;;;;;;5015155;28;20451;-79
2021/04/28 11:09:03;;;;;;;9.48;3.42;;;22.50;99.90;;;;;;4988960;28;20046;-77
2021/04/28 11:11:32;;;;;;;5.90;3.58;;;22.30;99.90;;;;;;5014692;28;20030;-75
2021/04/28 11:14:10;;;;;;;9.82;3.30;;;22.30;99.90;;;;;;5025570;28;20077;-87
2021/04/28 11:16:47;;;;;;;4.97;2.60;;;22.30;99.90;;;;;;5024973;28;20026;-75
2021/04/28 11:19:38;;;;;;;3.80;2.80;;;22.30;99.90;;;;;;5014932;28;20497;-74
2021/04/28 11:22:03;;;;;;;6.93;3.17;;;22.20;99.90;;;;;;5010037;28;20037;-75
2021/04/28 11:24:53;;;;;;;9.77;3.17;;;22.20;99.90;;;;;;5003661;28;20034;-76
2021/04/28 11:27:43;;;;;;;8.55;2.85;;;22.20;99.90;;;;;;5021143;28;20025;-75
2021/04/28 11:30:24;;;;;;;9.30;3.53;;;22.00;99.90;;;;;;5009785;28;20022;-82
2021/04/28 11:33:13;;;;;;;9.25;3.80;;;22.10;99.90;;;;;;5003640;28;20025;-85
2021/04/28 11:35:54;;;;;;;6.63;4.40;;;22.10;99.90;;;;;;5024952;28;20030;-75
2021/04/28 11:38:22;;;;;;;5.30;3.25;;;22.10;99.90;;;;;;5007834;28;20076;-74
2021/04/28 11:40:52;;;;;;;8.27;3.60;;;22.30;99.90;;;;;;5001679;28;20057;-86
2021/04/28 11:43:20;;;;;;;3.80;3.05;;;22.40;99.90;;;;;;5016306;28;20530;-85
2021/04/28 11:45:46;;;;;;;5.72;3.38;;;22.10;99.90;;;;;;5013145;28;20072;-74
2021/04/28 11:48:19;;;;;;;12.85;3.92;;;21.80;99.90;;;;;;5025352;28;20053;-79
2021/04/28 11:50:56;;;;;;;138.40;33.72;;;21.70;99.90;;;;;;5019773;28;20113;-84
2021/04/28 11:53:23;;;;;;;11.40;4.88;;;21.30;99.90;;;;;;5016382;28;20379;-82
2021/04/28 11:55:49;;;;;;;6.63;3.50;;;21.10;99.90;;;;;;5014587;28;20057;-85
2021/04/28 11:58:20;;;;;;;13.50;4.00;;;20.90;99.90;;;;;;5023748;28;20052;-77
2021/04/28 12:00:46;;;;;;;7.32;3.33;;;20.90;99.90;;;;;;5017070;28;20057;-78
2021/04/28 12:03:11;;;;;;;18.17;3.67;;;20.80;99.90;;;;;;5012334;28;20076;-75
2021/04/28 12:05:38;;;;;;;7.55;3.70;;;20.80;99.90;;;;;;5021722;28;20038;-81
2021/04/28 12:08:04;;;;;;;8.45;3.92;;;20.90;99.90;;;;;;5021782;28;20040;-77
2021/04/28 12:10:30;;;;;;;5.03;3.67;;;21.00;99.90;;;;;;5013128;28;20475;-86
2021/04/28 12:12:55;;;;;;;7.70;3.45;;;20.90;99.90;;;;;;5014511;28;20327;-76
2021/04/28 12:15:21;;;;;;;7.00;3.78;;;20.90;99.90;;;;;;5011658;28;20028;-83
2021/04/28 12:17:49;;;;;;;7.78;4.47;;;20.70;99.90;;;;;;5002569;28;20034;-76
2021/04/28 12:20:22;;;;;;;6.20;3.40;;;20.70;99.90;;;;;;5012304;28;20026;-86
2021/04/28 12:22:48;;;;;;;5.38;3.25;;;20.80;99.90;;;;;;5020396;28;20037;-78
2021/04/28 12:25:17;;;;;;;9.15;3.30;;;20.90;99.90;;;;;;5020281;28;20022;-76
2021/04/28 12:27:44;;;;;;;4.88;3.08;;;20.90;99.90;;;;;;5000667;28;20029;-76
2021/04/28 12:30:14;;;;;;;5.93;3.30;;;20.80;99.90;;;;;;5015677;28;20026;-77
2021/04/28 12:32:44;;;;;;;3.13;2.80;;;20.70;99.90;;;;;;5016481;28;20033;-77
2021/04/28 12:35:24;;;;;;;5.93;3.38;;;20.70;99.90;;;;;;5012672;28;20028;-78
2021/04/28 12:38:11;;;;;;;8.43;3.08;;;20.50;99.90;;;;;;5000151;28;20022;-81
2021/04/28 12:40:36;;;;;;;3.45;3.00;;;20.50;99.90;;;;;;5010712;28;20032;-79
2021/04/28 12:43:04;;;;;;;8.85;4.10;;;20.30;99.90;;;;;;5012578;28;20517;-78
2021/04/28 12:45:30;;;;;;;6.15;3.53;;;20.20;99.90;;;;;;5000139;28;20022;-75
2021/04/28 12:48:25;;;;;;;6.68;3.45;;;20.20;99.90;;;;;;5007856;28;20105;-76
2021/04/28 12:50:51;;;;;;;4.88;3.17;;;20.30;99.90;;;;;;4981322;28;20050;-75